sensor_id;sensor_type;location;lat;lon;timestamp;P1;durP1;ratioP1;P2;durP2;ratioP2
30299;SDS011;17110;52.602;12.998;2024-02-21T00:03:25;18.77;;;6.40;;
30299;SDS011;17110;52.602;12.998;2024-02-21T00:08:26;22.02;;;7.43;;
30299;SDS011;17110;52.602;12.998;2024-02-21T00:13:27;15.80;;;6.70;;
30299;SDS011;17110;52.602;12.998;2024-02-21T00:18:29;16.48;;;5.78;;
30299;SDS011;17110;52.602;12.998;2024-02-21T00:23:30;12.55;;;5.70;;
30299;SDS011;17110;52.602;12.998;2024-02-21T00:28:30;17.30;;;6.65;;
30299;SDS011;17110;52.602;12.998;2024-02-21T00:33:32;15.57;;;5.63;;
30299;SDS011;17110;52.602;12.998;2024-02-21T00:38:33;23.85;;;6.50;;
30299;SDS011;17110;52.602;12.998;2024-02-21T00:43:34;16.23;;;6.57;;
30299;SDS011;17110;52.602;12.998;2024-02-21T00:48:36;15.68;;;5.90;;
30299;SDS011;17110;52.602;12.998;2024-02-21T00:53:37;18.60;;;6.32;;
30299;SDS011;17110;52.602;12.998;2024-02-21T00:58:37;14.98;;;6.45;;
30299;SDS011;17110;52.602;12.998;2024-02-21T01:03:40;19.85;;;6.45;;
30299;SDS011;17110;52.602;12.998;2024-02-21T01:08:41;13.25;;;6.15;;
30299;SDS011;17110;52.602;12.998;2024-02-21T01:13:42;15.48;;;6.03;;
30299;SDS011;17110;52.602;12.998;2024-02-21T01:18:44;15.77;;;5.68;;
30299;SDS011;17110;52.602;12.998;2024-02-21T01:23:45;13.45;;;5.70;;
30299;SDS011;17110;52.602;12.998;2024-02-21T01:28:45;18.75;;;5.97;;
30299;SDS011;17110;52.602;12.998;2024-02-21T01:33:47;20.77;;;5.70;;
30299;SDS011;17110;52.602;12.998;2024-02-21T01:38:48;12.00;;;5.13;;
30299;SDS011;17110;52.602;12.998;2024-02-21T01:43:49;11.52;;;5.20;;
30299;SDS011;17110;52.602;12.998;2024-02-21T01:48:51;15.88;;;5.88;;
30299;SDS011;17110;52.602;12.998;2024-02-21T01:53:52;14.10;;;6.00;;
30299;SDS011;17110;52.602;12.998;2024-02-21T01:58:55;17.40;;;6.15;;
30299;SDS011;17110;52.602;12.998;2024-02-21T02:03:57;14.27;;;5.45;;
30299;SDS011;17110;52.602;12.998;2024-02-21T02:08:59;15.15;;;6.10;;
30299;SDS011;17110;52.602;12.998;2024-02-21T02:14:00;17.30;;;6.07;;
30299;SDS011;17110;52.602;12.998;2024-02-21T02:19:02;15.88;;;6.82;;
30299;SDS011;17110;52.602;12.998;2024-02-21T02:24:04;19.05;;;6.35;;
30299;SDS011;17110;52.602;12.998;2024-02-21T02:29:06;15.40;;;7.03;;
30299;SDS011;17110;52.602;12.998;2024-02-21T02:34:06;15.10;;;7.13;;
30299;SDS011;17110;52.602;12.998;2024-02-21T02:39:08;14.57;;;6.57;;
30299;SDS011;17110;52.602;12.998;2024-02-21T02:44:09;18.88;;;6.90;;
30299;SDS011;17110;52.602;12.998;2024-02-21T02:49:10;16.40;;;6.53;;
30299;SDS011;17110;52.602;12.998;2024-02-21T02:54:12;16.33;;;6.70;;
30299;SDS011;17110;52.602;12.998;2024-02-21T02:59:13;20.95;;;6.88;;
30299;SDS011;17110;52.602;12.998;2024-02-21T03:04:13;20.25;;;7.95;;
30299;SDS011;17110;52.602;12.998;2024-02-21T03:09:15;14.65;;;8.32;;
30299;SDS011;17110;52.602;12.998;2024-02-21T03:14:16;17.80;;;7.13;;
30299;SDS011;17110;52.602;12.998;2024-02-21T03:19:17;15.40;;;7.47;;
30299;SDS011;17110;52.602;12.998;2024-02-21T03:24:19;15.63;;;7.78;;
30299;SDS011;17110;52.602;12.998;2024-02-21T03:29:20;18.70;;;8.20;;
30299;SDS011;17110;52.602;12.998;2024-02-21T03:34:21;19.92;;;8.38;;
30299;SDS011;17110;52.602;12.998;2024-02-21T03:39:23;22.42;;;7.95;;
30299;SDS011;17110;52.602;12.998;2024-02-21T03:44:23;21.88;;;9.60;;
30299;SDS011;17110;52.602;12.998;2024-02-21T03:49:24;17.73;;;8.93;;
30299;SDS011;17110;52.602;12.998;2024-02-21T03:54:26;14.63;;;8.45;;
30299;SDS011;17110;52.602;12.998;2024-02-21T03:59:27;19.65;;;8.80;;
30299;SDS011;17110;52.602;12.998;2024-02-21T04:04:28;19.65;;;8.45;;
30299;SDS011;17110;52.602;12.998;2024-02-21T04:09:30;20.17;;;9.18;;
30299;SDS011;17110;52.602;12.998;2024-02-21T04:14:31;18.50;;;9.27;;
30299;SDS011;17110;52.602;12.998;2024-02-21T04:19:31;18.77;;;9.57;;
30299;SDS011;17110;52.602;12.998;2024-02-21T04:24:33;18.77;;;9.63;;
30299;SDS011;17110;52.602;12.998;2024-02-21T04:29:34;16.55;;;9.65;;
30299;SDS011;17110;52.602;12.998;2024-02-21T04:34:35;20.10;;;9.48;;
30299;SDS011;17110;52.602;12.998;2024-02-21T04:39:37;21.55;;;9.63;;
30299;SDS011;17110;52.602;12.998;2024-02-21T04:44:37;22.45;;;9.98;;
30299;SDS011;17110;52.602;12.998;2024-02-21T04:49:38;15.95;;;9.75;;
30299;SDS011;17110;52.602;12.998;2024-02-21T04:54:41;18.08;;;10.30;;
30299;SDS011;17110;52.602;12.998;2024-02-21T04:59:41;20.13;;;10.95;;
30299;SDS011;17110;52.602;12.998;2024-02-21T05:04:43;22.42;;;11.27;;
30299;SDS011;17110;52.602;12.998;2024-02-21T05:09:45;17.38;;;9.73;;
30299;SDS011;17110;52.602;12.998;2024-02-21T05:14:45;19.17;;;10.38;;
30299;SDS011;17110;52.602;12.998;2024-02-21T05:19:47;21.05;;;10.52;;
30299;SDS011;17110;52.602;12.998;2024-02-21T05:24:49;24.77;;;11.70;;
30299;SDS011;17110;52.602;12.998;2024-02-21T05:29:49;17.92;;;10.15;;
30299;SDS011;17110;52.602;12.998;2024-02-21T05:34:50;21.80;;;11.27;;
30299;SDS011;17110;52.602;12.998;2024-02-21T05:39:52;23.52;;;10.70;;
30299;SDS011;17110;52.602;12.998;2024-02-21T05:44:53;19.80;;;11.07;;
30299;SDS011;17110;52.602;12.998;2024-02-21T05:49:54;23.50;;;11.10;;
30299;SDS011;17110;52.602;12.998;2024-02-21T05:54:56;19.85;;;11.95;;
30299;SDS011;17110;52.602;12.998;2024-02-21T05:59:56;25.67;;;12.35;;
30299;SDS011;17110;52.602;12.998;2024-02-21T06:04:57;21.88;;;12.15;;
30299;SDS011;17110;52.602;12.998;2024-02-21T06:09:59;17.55;;;11.38;;
30299;SDS011;17110;52.602;12.998;2024-02-21T06:15:00;19.10;;;10.40;;
30299;SDS011;17110;52.602;12.998;2024-02-21T06:20:01;19.95;;;12.05;;
30299;SDS011;17110;52.602;12.998;2024-02-21T06:25:03;19.60;;;11.48;;
30299;SDS011;17110;52.602;12.998;2024-02-21T06:30:05;22.20;;;11.63;;
30299;SDS011;17110;52.602;12.998;2024-02-21T06:35:06;24.95;;;12.93;;
30299;SDS011;17110;52.602;12.998;2024-02-21T06:40:09;23.00;;;13.68;;
30299;SDS011;17110;52.602;12.998;2024-02-21T06:45:10;25.27;;;13.95;;
30299;SDS011;17110;52.602;12.998;2024-02-21T06:50:10;22.23;;;12.57;;
30299;SDS011;17110;52.602;12.998;2024-02-21T06:55:12;24.38;;;12.85;;
30299;SDS011;17110;52.602;12.998;2024-02-21T07:00:13;20.75;;;12.52;;
30299;SDS011;17110;52.602;12.998;2024-02-21T07:05:15;21.00;;;12.38;;
30299;SDS011;17110;52.602;12.998;2024-02-21T07:10:17;25.42;;;12.50;;
30299;SDS011;17110;52.602;12.998;2024-02-21T07:15:18;18.85;;;11.00;;
30299;SDS011;17110;52.602;12.998;2024-02-21T07:20:18;21.42;;;12.00;;
30299;SDS011;17110;52.602;12.998;2024-02-21T07:25:21;22.48;;;11.35;;
30299;SDS011;17110;52.602;12.998;2024-02-21T07:30:21;14.93;;;10.52;;
30299;SDS011;17110;52.602;12.998;2024-02-21T07:35:22;15.10;;;10.63;;
30299;SDS011;17110;52.602;12.998;2024-02-21T07:40:25;16.65;;;10.80;;
30299;SDS011;17110;52.602;12.998;2024-02-21T07:45:26;20.02;;;10.93;;
30299;SDS011;17110;52.602;12.998;2024-02-21T07:50:27;17.20;;;11.23;;
30299;SDS011;17110;52.602;12.998;2024-02-21T07:55:29;17.30;;;10.68;;
30299;SDS011;17110;52.602;12.998;2024-02-21T08:00:29;19.23;;;10.60;;
30299;SDS011;17110;52.602;12.998;2024-02-21T08:05:30;20.08;;;11.13;;
30299;SDS011;17110;52.602;12.998;2024-02-21T08:10:35;17.17;;;9.93;;
30299;SDS011;17110;52.602;12.998;2024-02-21T08:15:36;16.40;;;10.60;;
30299;SDS011;17110;52.602;12.998;2024-02-21T08:20:36;17.85;;;10.48;;
30299;SDS011;17110;52.602;12.998;2024-02-21T08:25:39;18.27;;;11.10;;
30299;SDS011;17110;52.602;12.998;2024-02-21T08:30:39;22.58;;;11.75;;
30299;SDS011;17110;52.602;12.998;2024-02-21T08:35:40;19.13;;;11.32;;
30299;SDS011;17110;52.602;12.998;2024-02-21T08:40:42;20.45;;;10.73;;
30299;SDS011;17110;52.602;12.998;2024-02-21T08:45:43;21.08;;;11.35;;
30299;SDS011;17110;52.602;12.998;2024-02-21T08:50:44;17.75;;;11.15;;
30299;SDS011;17110;52.602;12.998;2024-02-21T08:55:46;22.92;;;12.27;;
30299;SDS011;17110;52.602;12.998;2024-02-21T09:00:46;18.77;;;11.45;;
30299;SDS011;17110;52.602;12.998;2024-02-21T09:05:47;21.42;;;10.52;;
30299;SDS011;17110;52.602;12.998;2024-02-21T09:10:49;22.33;;;12.27;;
30299;SDS011;17110;52.602;12.998;2024-02-21T09:15:50;18.33;;;12.25;;
30299;SDS011;17110;52.602;12.998;2024-02-21T09:20:51;17.40;;;11.20;;
30299;SDS011;17110;52.602;12.998;2024-02-21T09:25:53;17.02;;;11.95;;
30299;SDS011;17110;52.602;12.998;2024-02-21T09:30:53;17.55;;;11.60;;
30299;SDS011;17110;52.602;12.998;2024-02-21T09:35:54;17.60;;;12.45;;
30299;SDS011;17110;52.602;12.998;2024-02-21T09:40:58;23.58;;;12.60;;
30299;SDS011;17110;52.602;12.998;2024-02-21T09:46:00;18.08;;;11.65;;
30299;SDS011;17110;52.602;12.998;2024-02-21T09:51:01;19.23;;;11.98;;
30299;SDS011;17110;52.602;12.998;2024-02-21T09:56:05;17.98;;;11.18;;
30299;SDS011;17110;52.602;12.998;2024-02-21T10:01:08;17.52;;;10.95;;
30299;SDS011;17110;52.602;12.998;2024-02-21T10:06:09;16.98;;;9.90;;
30299;SDS011;17110;52.602;12.998;2024-02-21T10:11:11;15.65;;;10.00;;
30299;SDS011;17110;52.602;12.998;2024-02-21T10:16:22;11.15;;;9.02;;
30299;SDS011;17110;52.602;12.998;2024-02-21T10:21:23;13.07;;;9.27;;
30299;SDS011;17110;52.602;12.998;2024-02-21T10:26:25;12.85;;;9.32;;
30299;SDS011;17110;52.602;12.998;2024-02-21T10:31:26;14.35;;;9.63;;
30299;SDS011;17110;52.602;12.998;2024-02-21T10:36:27;16.17;;;9.80;;
30299;SDS011;17110;52.602;12.998;2024-02-21T10:41:29;14.60;;;9.65;;
30299;SDS011;17110;52.602;12.998;2024-02-21T10:46:32;11.35;;;8.82;;
30299;SDS011;17110;52.602;12.998;2024-02-21T10:51:35;12.80;;;8.77;;
30299;SDS011;17110;52.602;12.998;2024-02-21T10:56:41;15.07;;;8.55;;
30299;SDS011;17110;52.602;12.998;2024-02-21T11:01:43;10.32;;;7.43;;
30299;SDS011;17110;52.602;12.998;2024-02-21T11:06:43;10.77;;;6.90;;
30299;SDS011;17110;52.602;12.998;2024-02-21T11:11:46;8.85;;;6.18;;
30299;SDS011;17110;52.602;12.998;2024-02-21T11:16:47;10.00;;;6.50;;
30299;SDS011;17110;52.602;12.998;2024-02-21T11:21:48;9.00;;;6.88;;
30299;SDS011;17110;52.602;12.998;2024-02-21T11:26:51;8.90;;;6.80;;
30299;SDS011;17110;52.602;12.998;2024-02-21T11:31:52;9.85;;;5.88;;
30299;SDS011;17110;52.602;12.998;2024-02-21T11:36:53;11.05;;;5.82;;
30299;SDS011;17110;52.602;12.998;2024-02-21T11:42:02;8.60;;;5.80;;
30299;SDS011;17110;52.602;12.998;2024-02-21T11:47:03;8.18;;;5.20;;
30299;SDS011;17110;52.602;12.998;2024-02-21T11:52:04;12.20;;;5.95;;
30299;SDS011;17110;52.602;12.998;2024-02-21T11:57:07;9.07;;;5.07;;
30299;SDS011;17110;52.602;12.998;2024-02-21T12:02:08;7.20;;;5.57;;
30299;SDS011;17110;52.602;12.998;2024-02-21T12:07:10;8.65;;;5.03;;
30299;SDS011;17110;52.602;12.998;2024-02-21T12:12:12;8.45;;;5.28;;
30299;SDS011;17110;52.602;12.998;2024-02-21T12:17:13;6.10;;;4.03;;
30299;SDS011;17110;52.602;12.998;2024-02-21T12:22:15;6.35;;;4.78;;
30299;SDS011;17110;52.602;12.998;2024-02-21T12:27:19;4.53;;;4.05;;
30299;SDS011;17110;52.602;12.998;2024-02-21T12:32:20;5.72;;;3.20;;
30299;SDS011;17110;52.602;12.998;2024-02-21T12:37:21;3.95;;;3.38;;
30299;SDS011;17110;52.602;12.998;2024-02-21T12:42:23;3.30;;;2.92;;
30299;SDS011;17110;52.602;12.998;2024-02-21T12:47:24;4.72;;;3.88;;
30299;SDS011;17110;52.602;12.998;2024-02-21T12:52:25;6.68;;;3.80;;
30299;SDS011;17110;52.602;12.998;2024-02-21T12:57:27;7.20;;;4.07;;
30299;SDS011;17110;52.602;12.998;2024-02-21T13:02:28;5.93;;;4.07;;
30299;SDS011;17110;52.602;12.998;2024-02-21T13:07:29;5.97;;;3.67;;
30299;SDS011;17110;52.602;12.998;2024-02-21T13:12:31;6.70;;;3.88;;
30299;SDS011;17110;52.602;12.998;2024-02-21T13:17:31;7.72;;;3.60;;
30299;SDS011;17110;52.602;12.998;2024-02-21T13:22:32;6.30;;;3.60;;
30299;SDS011;17110;52.602;12.998;2024-02-21T13:27:34;8.25;;;3.60;;
30299;SDS011;17110;52.602;12.998;2024-02-21T13:32:35;9.55;;;4.32;;
30299;SDS011;17110;52.602;12.998;2024-02-21T13:37:36;5.50;;;3.85;;
30299;SDS011;17110;52.602;12.998;2024-02-21T13:42:38;5.63;;;3.47;;
30299;SDS011;17110;52.602;12.998;2024-02-21T13:47:39;6.28;;;3.90;;
30299;SDS011;17110;52.602;12.998;2024-02-21T13:52:40;6.63;;;3.40;;
30299;SDS011;17110;52.602;12.998;2024-02-21T13:57:42;4.70;;;3.65;;
30299;SDS011;17110;52.602;12.998;2024-02-21T14:02:42;5.70;;;3.95;;
30299;SDS011;17110;52.602;12.998;2024-02-21T14:07:43;6.22;;;4.00;;
30299;SDS011;17110;52.602;12.998;2024-02-21T14:12:45;8.68;;;4.35;;
30299;SDS011;17110;52.602;12.998;2024-02-21T14:17:46;6.07;;;3.55;;
30299;SDS011;17110;52.602;12.998;2024-02-21T14:22:47;5.07;;;3.50;;
30299;SDS011;17110;52.602;12.998;2024-02-21T14:27:49;8.43;;;3.53;;
30299;SDS011;17110;52.602;12.998;2024-02-21T14:32:49;7.00;;;3.78;;
30299;SDS011;17110;52.602;12.998;2024-02-21T14:37:50;7.05;;;3.17;;
30299;SDS011;17110;52.602;12.998;2024-02-21T14:42:52;6.70;;;4.45;;
30299;SDS011;17110;52.602;12.998;2024-02-21T14:47:53;7.75;;;3.72;;
30299;SDS011;17110;52.602;12.998;2024-02-21T14:52:54;8.13;;;3.85;;
30299;SDS011;17110;52.602;12.998;2024-02-21T14:57:56;8.77;;;4.47;;
30299;SDS011;17110;52.602;12.998;2024-02-21T15:02:57;5.30;;;3.20;;
30299;SDS011;17110;52.602;12.998;2024-02-21T15:07:57;5.20;;;2.85;;
30299;SDS011;17110;52.602;12.998;2024-02-21T15:13:00;5.30;;;3.90;;
30299;SDS011;17110;52.602;12.998;2024-02-21T15:18:01;7.68;;;4.32;;
30299;SDS011;17110;52.602;12.998;2024-02-21T15:23:02;10.02;;;4.63;;
30299;SDS011;17110;52.602;12.998;2024-02-21T15:28:04;12.05;;;5.22;;
30299;SDS011;17110;52.602;12.998;2024-02-21T15:33:05;9.30;;;4.88;;
30299;SDS011;17110;52.602;12.998;2024-02-21T15:38:06;6.60;;;4.13;;
30299;SDS011;17110;52.602;12.998;2024-02-21T15:43:08;9.05;;;4.20;;
30299;SDS011;17110;52.602;12.998;2024-02-21T15:48:09;12.82;;;6.32;;
30299;SDS011;17110;52.602;12.998;2024-02-21T15:53:09;7.50;;;4.72;;
30299;SDS011;17110;52.602;12.998;2024-02-21T15:58:11;6.80;;;4.80;;
30299;SDS011;17110;52.602;12.998;2024-02-21T16:03:12;8.63;;;4.70;;
30299;SDS011;17110;52.602;12.998;2024-02-21T16:08:13;9.52;;;5.82;;
30299;SDS011;17110;52.602;12.998;2024-02-21T16:13:15;7.07;;;4.65;;
30299;SDS011;17110;52.602;12.998;2024-02-21T16:18:16;8.80;;;4.72;;
30299;SDS011;17110;52.602;12.998;2024-02-21T16:23:16;7.88;;;4.70;;
30299;SDS011;17110;52.602;12.998;2024-02-21T16:28:18;9.52;;;4.40;;
30299;SDS011;17110;52.602;12.998;2024-02-21T16:33:19;9.73;;;4.95;;
30299;SDS011;17110;52.602;12.998;2024-02-21T16:38:20;8.15;;;5.40;;
30299;SDS011;17110;52.602;12.998;2024-02-21T16:43:22;10.35;;;4.95;;
30299;SDS011;17110;52.602;12.998;2024-02-21T16:48:23;9.90;;;5.65;;
30299;SDS011;17110;52.602;12.998;2024-02-21T16:53:23;12.05;;;6.13;;
30299;SDS011;17110;52.602;12.998;2024-02-21T16:58:26;13.45;;;6.65;;
30299;SDS011;17110;52.602;12.998;2024-02-21T17:03:26;10.52;;;5.88;;
30299;SDS011;17110;52.602;12.998;2024-02-21T17:08:27;9.45;;;5.05;;
30299;SDS011;17110;52.602;12.998;2024-02-21T17:13:29;10.00;;;5.55;;
30299;SDS011;17110;52.602;12.998;2024-02-21T17:18:30;8.85;;;5.30;;
30299;SDS011;17110;52.602;12.998;2024-02-21T17:23:31;10.43;;;5.25;;
30299;SDS011;17110;52.602;12.998;2024-02-21T17:28:33;12.40;;;5.63;;
30299;SDS011;17110;52.602;12.998;2024-02-21T17:33:34;9.15;;;5.20;;
30299;SDS011;17110;52.602;12.998;2024-02-21T17:38:34;9.40;;;5.18;;
30299;SDS011;17110;52.602;12.998;2024-02-21T17:43:36;10.80;;;5.20;;
30299;SDS011;17110;52.602;12.998;2024-02-21T17:48:37;23.23;;;11.10;;
30299;SDS011;17110;52.602;12.998;2024-02-21T17:53:38;12.18;;;6.47;;
30299;SDS011;17110;52.602;12.998;2024-02-21T17:58:40;11.05;;;5.72;;
30299;SDS011;17110;52.602;12.998;2024-02-21T18:03:41;9.88;;;5.57;;
30299;SDS011;17110;52.602;12.998;2024-02-21T18:08:42;10.90;;;5.85;;
30299;SDS011;17110;52.602;12.998;2024-02-21T18:13:44;17.63;;;8.77;;
30299;SDS011;17110;52.602;12.998;2024-02-21T18:18:45;13.80;;;6.55;;
30299;SDS011;17110;52.602;12.998;2024-02-21T18:23:45;11.23;;;5.93;;
30299;SDS011;17110;52.602;12.998;2024-02-21T18:28:47;8.45;;;5.15;;
30299;SDS011;17110;52.602;12.998;2024-02-21T18:33:48;10.23;;;6.65;;
30299;SDS011;17110;52.602;12.998;2024-02-21T18:38:49;11.07;;;6.68;;
30299;SDS011;17110;52.602;12.998;2024-02-21T18:43:51;11.80;;;5.88;;
30299;SDS011;17110;52.602;12.998;2024-02-21T18:48:52;6.97;;;5.43;;
30299;SDS011;17110;52.602;12.998;2024-02-21T18:53:54;10.23;;;5.03;;
30299;SDS011;17110;52.602;12.998;2024-02-21T18:58:56;9.38;;;5.03;;
30299;SDS011;17110;52.602;12.998;2024-02-21T19:03:59;9.50;;;4.90;;
30299;SDS011;17110;52.602;12.998;2024-02-21T19:08:59;11.68;;;5.13;;
30299;SDS011;17110;52.602;12.998;2024-02-21T19:14:03;10.50;;;5.55;;
30299;SDS011;17110;52.602;12.998;2024-02-21T19:19:04;6.38;;;4.78;;
30299;SDS011;17110;52.602;12.998;2024-02-21T19:24:05;10.68;;;5.40;;
30299;SDS011;17110;52.602;12.998;2024-02-21T19:29:07;10.40;;;7.03;;
30299;SDS011;17110;52.602;12.998;2024-02-21T19:34:08;8.98;;;5.90;;
30299;SDS011;17110;52.602;12.998;2024-02-21T19:39:09;11.15;;;6.05;;
30299;SDS011;17110;52.602;12.998;2024-02-21T19:44:11;8.45;;;5.75;;
30299;SDS011;17110;52.602;12.998;2024-02-21T19:49:12;10.40;;;5.93;;
30299;SDS011;17110;52.602;12.998;2024-02-21T19:54:12;8.05;;;5.68;;
30299;SDS011;17110;52.602;12.998;2024-02-21T19:59:15;10.50;;;6.50;;
30299;SDS011;17110;52.602;12.998;2024-02-21T20:04:15;9.27;;;5.13;;
30299;SDS011;17110;52.602;12.998;2024-02-21T20:09:16;7.18;;;4.95;;
30299;SDS011;17110;52.602;12.998;2024-02-21T20:14:18;9.27;;;5.32;;
30299;SDS011;17110;52.602;12.998;2024-02-21T20:19:19;8.23;;;5.53;;
30299;SDS011;17110;52.602;12.998;2024-02-21T20:24:20;8.93;;;4.90;;
30299;SDS011;17110;52.602;12.998;2024-02-21T20:29:22;7.75;;;5.15;;
30299;SDS011;17110;52.602;12.998;2024-02-21T20:34:22;6.80;;;5.10;;
30299;SDS011;17110;52.602;12.998;2024-02-21T20:39:23;6.53;;;4.78;;
30299;SDS011;17110;52.602;12.998;2024-02-21T20:44:26;7.00;;;4.70;;
30299;SDS011;17110;52.602;12.998;2024-02-21T20:49:27;8.05;;;5.30;;
30299;SDS011;17110;52.602;12.998;2024-02-21T20:54:27;6.07;;;4.97;;
30299;SDS011;17110;52.602;12.998;2024-02-21T20:59:29;7.22;;;4.78;;
30299;SDS011;17110;52.602;12.998;2024-02-21T21:04:30;7.93;;;4.20;;
30299;SDS011;17110;52.602;12.998;2024-02-21T21:09:31;6.50;;;4.30;;
30299;SDS011;17110;52.602;12.998;2024-02-21T21:14:33;6.53;;;3.90;;
30299;SDS011;17110;52.602;12.998;2024-02-21T21:19:34;6.10;;;4.68;;
30299;SDS011;17110;52.602;12.998;2024-02-21T21:24:35;8.25;;;4.95;;
30299;SDS011;17110;52.602;12.998;2024-02-21T21:29:38;9.65;;;5.65;;
30299;SDS011;17110;52.602;12.998;2024-02-21T21:34:39;5.45;;;4.53;;
30299;SDS011;17110;52.602;12.998;2024-02-21T21:39:40;10.73;;;5.10;;
30299;SDS011;17110;52.602;12.998;2024-02-21T21:44:42;7.88;;;4.80;;
30299;SDS011;17110;52.602;12.998;2024-02-21T21:49:43;7.07;;;4.32;;
30299;SDS011;17110;52.602;12.998;2024-02-21T21:54:44;7.65;;;4.45;;
30299;SDS011;17110;52.602;12.998;2024-02-21T21:59:46;5.57;;;4.30;;
30299;SDS011;17110;52.602;12.998;2024-02-21T22:04:47;9.15;;;3.97;;
30299;SDS011;17110;52.602;12.998;2024-02-21T22:09:47;6.15;;;3.53;;
30299;SDS011;17110;52.602;12.998;2024-02-21T22:14:49;6.93;;;3.40;;
30299;SDS011;17110;52.602;12.998;2024-02-21T22:19:50;11.27;;;3.63;;
30299;SDS011;17110;52.602;12.998;2024-02-21T22:24:51;5.75;;;3.08;;
30299;SDS011;17110;52.602;12.998;2024-02-21T22:29:53;5.20;;;3.65;;
30299;SDS011;17110;52.602;12.998;2024-02-21T22:34:54;6.63;;;3.80;;
30299;SDS011;17110;52.602;12.998;2024-02-21T22:39:54;6.05;;;3.33;;
30299;SDS011;17110;52.602;12.998;2024-02-21T22:44:56;8.23;;;3.28;;
30299;SDS011;17110;52.602;12.998;2024-02-21T22:49:57;5.20;;;2.92;;
30299;SDS011;17110;52.602;12.998;2024-02-21T22:54:58;4.47;;;3.42;;
30299;SDS011;17110;52.602;12.998;2024-02-21T23:00:01;5.82;;;3.63;;
30299;SDS011;17110;52.602;12.998;2024-02-21T23:05:02;6.28;;;3.55;;
30299;SDS011;17110;52.602;12.998;2024-02-21T23:10:04;5.32;;;3.17;;
30299;SDS011;17110;52.602;12.998;2024-02-21T23:15:07;8.35;;;3.22;;
30299;SDS011;17110;52.602;12.998;2024-02-21T23:20:08;5.88;;;3.55;;
30299;SDS011;17110;52.602;12.998;2024-02-21T23:25:09;6.38;;;4.95;;
30299;SDS011;17110;52.602;12.998;2024-02-21T23:30:12;10.82;;;5.70;;
30299;SDS011;17110;52.602;12.998;2024-02-21T23:35:13;8.00;;;4.40;;
30299;SDS011;17110;52.602;12.998;2024-02-21T23:40:14;6.70;;;4.15;;
30299;SDS011;17110;52.602;12.998;2024-02-21T23:45:16;5.75;;;3.13;;
30299;SDS011;17110;52.602;12.998;2024-02-21T23:50:17;6.68;;;2.72;;
30299;SDS011;17110;52.602;12.998;2024-02-21T23:55:17;5.38;;;2.78;;
